Terminal Aerodrome Forecast
Issued by NWS Sterling, VA

Current Version | Previous Version | Graphics & Text | Print | Product List | Glossary On
Versions: 1 2 3 4 5 6 7 8 9 10 11 12 13 14 15 16 17 18 19 20 21 22 23 24 25 26 27 28
000
FTUS41 KLWX 261808 AAA
TAFIAD
TAF AMD
KIAD 261808Z 2618/2724 14007KT P6SM OVC009
     FM262200 11009KT 4SM BR OVC008
     FM270000 10008KT 2SM -DZ BR OVC008
     FM270500 15006KT 1SM -DZ BR OVC008
     FM270700 16006KT 1 1/2SM BR OVC003
     FM271300 19007KT 2SM BR BKN003
     FM271500 21008KT P6SM BKN015
     FM271700 22008KT P6SM BKN060=

USA.gov is the U.S. government's official web portal to all federal, state and local government web resources and services.